Preview of NWS' New Version of Forecast
This preview is not operational and should not be used for support decisions.

Terminal Aerodrome Forecast (TAF)

Issued by National Weather Service (NWS)

                            
000
FTAK31 PAFC 221345 AAA
TAFADL
TAF AMD
PADL 221345Z 2214/2312 VRB03KT P6SM FEW007 OVC015
     FM221800 VRB04KT P6SM BKN015
     FM222100 VRB06KT P6SM SKC=